createdAt,value
2018-05-19T00:02:31.740Z,8.02
2018-05-19T00:05:04.303Z,8.52
2018-05-19T00:07:36.866Z,7.90
2018-05-19T00:10:09.482Z,7.68
2018-05-19T00:12:42.021Z,8.15
2018-05-19T00:15:14.552Z,7.68
2018-05-19T00:17:47.095Z,7.43
2018-05-19T00:20:19.611Z,8.43
2018-05-19T00:22:52.143Z,8.30
2018-05-19T00:25:24.657Z,7.93
2018-05-19T00:27:57.190Z,8.18
2018-05-19T00:30:29.701Z,9.02
2018-05-19T00:33:02.241Z,7.60
2018-05-19T00:35:35.200Z,8.15
2018-05-19T00:38:07.777Z,8.05
2018-05-19T00:40:40.346Z,7.72
2018-05-19T00:43:12.888Z,8.38
2018-05-19T00:45:45.453Z,8.27
2018-05-19T00:48:17.987Z,7.32
2018-05-19T00:50:50.503Z,6.62
2018-05-19T00:53:23.034Z,7.90
2018-05-19T00:55:55.541Z,8.18
2018-05-19T00:58:28.065Z,7.75
2018-05-19T01:01:00.574Z,7.85
2018-05-19T01:03:33.109Z,8.50
2018-05-19T01:06:06.127Z,9.40
2018-05-19T01:08:38.660Z,8.65
2018-05-19T01:11:11.198Z,9.43
2018-05-19T01:13:43.721Z,8.68
2018-05-19T01:16:16.269Z,9.55
2018-05-19T01:18:48.775Z,9.13
2018-05-19T01:21:21.304Z,8.82
2018-05-19T01:23:53.815Z,9.57
2018-05-19T01:26:26.344Z,9.50
2018-05-19T01:28:58.850Z,9.38
2018-05-19T01:31:31.385Z,8.70
2018-05-19T01:34:03.889Z,8.60
2018-05-19T01:36:37.408Z,8.98
2018-05-19T01:39:10.235Z,9.57
2018-05-19T01:41:42.784Z,9.55
2018-05-19T01:44:15.336Z,8.88
2018-05-19T01:46:47.881Z,9.13
2018-05-19T01:49:20.406Z,10.18
2018-05-19T01:51:52.944Z,9.38
2018-05-19T01:54:25.437Z,9.23
2018-05-19T01:56:57.966Z,8.57
2018-05-19T01:59:30.465Z,8.30
2018-05-19T02:02:02.996Z,10.30
2018-05-19T02:04:36.415Z,9.57
2018-05-19T02:07:09.120Z,7.90
2018-05-19T02:09:41.702Z,8.95
2018-05-19T02:12:14.278Z,8.98
2018-05-19T02:14:46.795Z,9.10
2018-05-19T02:17:19.358Z,8.25
2018-05-19T02:19:51.887Z,8.95
2018-05-19T02:22:24.412Z,9.00
2018-05-19T02:24:56.930Z,8.70
2018-05-19T02:27:29.521Z,9.82
2018-05-19T02:30:02.042Z,9.90
2018-05-19T02:32:34.968Z,8.82
2018-05-19T02:35:08.178Z,9.15
2018-05-19T02:37:40.730Z,9.45
2018-05-19T02:40:13.329Z,8.90
2018-05-19T02:42:46.346Z,10.38
2018-05-19T02:45:18.894Z,9.70
2018-05-19T02:47:51.425Z,10.43
2018-05-19T02:50:23.956Z,11.23
2018-05-19T02:52:56.499Z,10.17
2018-05-19T02:55:29.024Z,10.02
2018-05-19T02:58:01.568Z,8.15
2018-05-19T03:00:34.094Z,9.50
2018-05-19T03:03:07.043Z,9.57
2018-05-19T03:05:39.612Z,9.82
2018-05-19T03:08:12.241Z,11.27
2018-05-19T03:10:44.832Z,9.70
2018-05-19T03:13:17.441Z,8.82
2018-05-19T03:15:49.955Z,9.43
2018-05-19T03:18:22.521Z,10.70
2018-05-19T03:20:55.080Z,10.20
2018-05-19T03:23:27.609Z,8.88
2018-05-19T03:26:00.148Z,9.18
2018-05-19T03:28:32.677Z,10.25
2018-05-19T03:31:06.668Z,11.73
2018-05-19T03:33:39.358Z,11.27
2018-05-19T03:36:11.963Z,12.25
2018-05-19T03:38:44.515Z,10.82
2018-05-19T03:41:17.070Z,11.32
2018-05-19T03:43:49.619Z,10.98
2018-05-19T03:46:22.160Z,11.23
2018-05-19T03:48:54.736Z,10.57
2018-05-19T03:51:27.249Z,11.07
2018-05-19T03:53:59.823Z,12.20
2018-05-19T03:56:32.328Z,12.70
2018-05-19T03:59:17.080Z,11.82
2018-05-19T04:04:56.592Z,13.70
2018-05-19T04:07:29.117Z,12.48
2018-05-19T04:10:01.630Z,12.88
2018-05-19T04:12:34.227Z,13.02
2018-05-19T04:15:08.150Z,11.65
2018-05-19T04:17:40.735Z,12.30
2018-05-19T04:20:13.284Z,12.35
2018-05-19T04:22:45.893Z,12.30
2018-05-19T04:25:18.428Z,12.63
2018-05-19T04:27:50.978Z,12.90
2018-05-19T04:30:23.500Z,13.52
2018-05-19T04:32:56.140Z,12.57
2018-05-19T04:35:28.698Z,12.48
2018-05-19T04:38:01.243Z,13.25
2018-05-19T04:40:33.792Z,12.85
2018-05-19T04:43:06.652Z,13.57
2018-05-19T04:45:39.778Z,13.00
2018-05-19T04:48:12.686Z,13.80
2018-05-19T04:50:45.256Z,12.65
2018-05-19T04:53:17.808Z,12.68
2018-05-19T04:55:50.316Z,12.65
2018-05-19T04:58:22.850Z,11.80
2018-05-19T05:00:55.352Z,12.30
2018-05-19T05:03:27.876Z,12.77
2018-05-19T05:06:00.420Z,11.45
2018-05-19T05:08:32.952Z,10.77
2018-05-19T05:11:06.705Z,11.65
2018-05-19T05:13:39.260Z,11.95
2018-05-19T05:16:11.884Z,10.65
2018-05-19T05:18:44.391Z,11.68
2018-05-19T05:21:16.928Z,11.50
2018-05-19T05:23:49.459Z,10.57
2018-05-19T05:26:21.968Z,10.13
2018-05-19T05:28:54.497Z,10.27
2018-05-19T05:31:27.013Z,10.40
2018-05-19T05:33:59.552Z,11.07
2018-05-19T05:36:32.098Z,10.23
2018-05-19T05:39:04.635Z,10.18
2018-05-19T05:41:37.326Z,9.70
2018-05-19T05:44:10.142Z,10.45
2018-05-19T05:46:42.670Z,10.05
2018-05-19T05:49:15.499Z,10.25
2018-05-19T05:51:48.029Z,9.70
2018-05-19T05:54:20.557Z,11.25
2018-05-19T05:56:53.077Z,10.80
2018-05-19T05:59:25.627Z,10.48
2018-05-19T06:01:58.142Z,8.82
2018-05-19T06:04:30.677Z,10.05
2018-05-19T06:07:03.207Z,10.48
2018-05-19T06:09:35.876Z,10.20
2018-05-19T06:12:08.873Z,10.75
2018-05-19T06:14:41.449Z,10.15
2018-05-19T06:17:14.029Z,10.15
2018-05-19T06:19:46.597Z,10.75
2018-05-19T06:22:19.106Z,9.75
2018-05-19T06:24:51.701Z,9.00
2018-05-19T06:27:24.178Z,9.48
2018-05-19T06:29:56.717Z,10.35
2018-05-19T06:32:29.249Z,10.80
2018-05-19T06:35:01.797Z,10.90
2018-05-19T06:37:34.419Z,10.30
2018-05-19T06:40:07.669Z,10.23
2018-05-19T06:42:40.199Z,9.75
2018-05-19T06:45:12.735Z,10.82
2018-05-19T06:47:45.264Z,10.93
2018-05-19T06:50:17.807Z,10.15
2018-05-19T06:52:50.330Z,11.73
2018-05-19T06:55:22.861Z,9.57
2018-05-19T06:57:55.444Z,10.55
2018-05-19T07:00:27.987Z,11.35
2018-05-19T07:03:00.518Z,10.52
2018-05-19T07:05:33.088Z,10.68
2018-05-19T07:08:06.236Z,9.88
2018-05-19T07:10:38.753Z,11.00
2018-05-19T07:13:11.291Z,12.43
2018-05-19T07:15:43.865Z,11.23
2018-05-19T07:18:16.448Z,10.82
2018-05-19T07:20:48.984Z,11.10
2018-05-19T07:23:21.501Z,10.70
2018-05-19T07:25:54.044Z,10.55
2018-05-19T07:28:26.577Z,10.18
2018-05-19T07:31:00.517Z,10.43
2018-05-19T07:33:33.344Z,11.07
2018-05-19T07:36:07.411Z,10.18
2018-05-19T07:38:40.429Z,10.35
2018-05-19T07:41:13.251Z,10.30
2018-05-19T07:43:46.309Z,9.88
2018-05-19T07:46:19.404Z,9.48
2018-05-19T07:48:51.993Z,10.27
2018-05-19T07:51:24.542Z,10.15
2018-05-19T07:53:57.086Z,11.05
2018-05-19T07:56:29.604Z,10.02
2018-05-19T07:59:02.150Z,9.88
2018-05-19T08:01:35.064Z,10.63
2018-05-19T08:04:07.666Z,10.82
2018-05-19T08:06:40.214Z,10.90
2018-05-19T08:09:12.763Z,10.88
2018-05-19T08:11:45.293Z,11.00
2018-05-19T08:14:17.880Z,11.55
2018-05-19T08:16:50.388Z,12.02
2018-05-19T08:19:22.916Z,11.68
2018-05-19T08:21:55.730Z,12.70
2018-05-19T08:24:28.348Z,12.18
2018-05-19T08:27:00.869Z,14.02
2018-05-19T08:29:33.398Z,12.60
2018-05-19T08:32:07.422Z,13.30
2018-05-19T08:34:39.991Z,13.60
2018-05-19T08:37:12.507Z,13.20
2018-05-19T08:39:45.226Z,12.57
2018-05-19T08:42:18.419Z,13.07
2018-05-19T08:44:51.076Z,12.98
2018-05-19T08:47:23.610Z,13.82
2018-05-19T08:49:56.141Z,12.88
2018-05-19T08:52:28.932Z,13.57
2018-05-19T08:55:01.515Z,12.73
2018-05-19T08:57:34.090Z,13.15
2018-05-19T09:00:08.118Z,12.85
2018-05-19T09:02:40.691Z,14.18
2018-05-19T09:05:13.266Z,13.93
2018-05-19T09:07:45.838Z,13.75
2018-05-19T09:10:18.391Z,13.93
2018-05-19T09:12:51.010Z,13.75
2018-05-19T09:15:23.471Z,14.20
2018-05-19T09:17:55.988Z,12.95
2018-05-19T09:20:28.513Z,14.32
2018-05-19T09:23:01.020Z,14.15
2018-05-19T09:25:33.556Z,15.15
2018-05-19T09:28:07.566Z,14.57
2018-05-19T09:30:40.160Z,13.57
2018-05-19T09:33:12.704Z,12.15
2018-05-19T09:35:45.290Z,12.98
2018-05-19T09:38:17.812Z,13.50
2018-05-19T09:40:50.379Z,12.48
2018-05-19T09:43:22.944Z,13.52
2018-05-19T09:45:55.492Z,13.07
2018-05-19T09:48:28.036Z,12.57
2018-05-19T09:51:00.566Z,14.55
2018-05-19T09:53:33.073Z,13.45
2018-05-19T09:56:06.094Z,14.82
2018-05-19T09:58:39.305Z,14.30
2018-05-19T10:01:11.853Z,13.15
2018-05-19T10:03:44.385Z,13.13
2018-05-19T10:06:16.995Z,14.90
2018-05-19T10:08:49.520Z,12.90
2018-05-19T10:11:22.112Z,13.57
2018-05-19T10:13:54.642Z,13.90
2018-05-19T10:16:27.188Z,13.95
2018-05-19T10:18:59.706Z,13.57
2018-05-19T10:21:32.258Z,13.18
2018-05-19T10:24:04.920Z,13.73
2018-05-19T10:26:37.634Z,12.70
2018-05-19T10:29:10.181Z,12.60
2018-05-19T10:31:42.738Z,12.55
2018-05-19T10:34:15.264Z,13.30
2018-05-19T10:36:47.795Z,13.75
2018-05-19T10:39:20.301Z,13.77
2018-05-19T10:41:52.895Z,13.13
2018-05-19T10:44:25.421Z,13.50
2018-05-19T10:46:57.935Z,13.65
2018-05-19T10:49:30.461Z,12.40
2018-05-19T10:52:02.992Z,13.15
2018-05-19T10:54:35.717Z,13.23
2018-05-19T10:57:09.156Z,15.25
2018-05-19T10:59:41.733Z,14.13
2018-05-19T11:02:14.253Z,13.70
2018-05-19T11:04:46.782Z,14.32
2018-05-19T11:07:19.287Z,15.52
2018-05-19T11:09:51.917Z,15.85
2018-05-19T11:12:24.348Z,14.40
2018-05-19T11:14:56.883Z,15.07
2018-05-19T11:17:29.399Z,13.25
2018-05-19T11:22:40.479Z,14.93
2018-05-19T11:25:13.014Z,15.43
2018-05-19T11:27:45.813Z,15.95
2018-05-19T11:31:28.949Z,15.20
2018-05-19T11:34:01.526Z,17.73
2018-05-19T11:36:34.113Z,19.52
2018-05-19T11:39:06.659Z,15.55
2018-05-19T11:41:39.289Z,16.05
2018-05-19T11:44:11.842Z,16.52
2018-05-19T11:46:44.379Z,16.45
2018-05-19T11:49:18.424Z,16.12
2018-05-19T11:51:50.969Z,17.75
2018-05-19T11:54:23.727Z,15.50
2018-05-19T11:56:56.347Z,15.13
2018-05-19T11:59:28.816Z,15.02
2018-05-19T12:02:01.355Z,14.73
2018-05-19T12:04:33.878Z,14.70
2018-05-19T12:07:07.681Z,13.38
2018-05-19T12:09:40.220Z,14.07
2018-05-19T12:12:12.828Z,15.52
2018-05-19T12:14:45.311Z,14.82
2018-05-19T12:17:17.854Z,15.23
2018-05-19T12:19:50.390Z,16.08
2018-05-19T12:22:22.945Z,15.55
2018-05-19T12:24:55.502Z,14.10
2018-05-19T12:27:28.139Z,16.95
2018-05-19T12:30:00.796Z,15.18
2018-05-19T12:32:33.344Z,14.23
2018-05-19T12:35:05.963Z,14.95
2018-05-19T12:37:38.520Z,15.13
2018-05-19T12:40:11.102Z,16.30
2018-05-19T12:42:43.638Z,14.70
2018-05-19T12:45:16.229Z,15.48
2018-05-19T12:47:48.768Z,17.17
2018-05-19T12:50:21.300Z,15.68
2018-05-19T12:52:53.803Z,17.52
2018-05-19T12:55:26.332Z,17.45
2018-05-19T12:57:58.831Z,17.83
2018-05-19T13:00:31.368Z,17.00
2018-05-19T13:03:06.719Z,15.30
2018-05-19T13:05:39.293Z,16.87
2018-05-19T13:08:12.032Z,13.85
2018-05-19T13:10:44.598Z,15.95
2018-05-19T13:13:18.503Z,17.33
2018-05-19T13:15:51.848Z,15.88
2018-05-19T13:18:24.427Z,14.20
2018-05-19T13:20:56.990Z,12.32
2018-05-19T13:23:29.519Z,13.02
2018-05-19T13:26:02.117Z,11.50
2018-05-19T13:28:36.434Z,14.32
2018-05-19T13:31:09.033Z,12.25
2018-05-19T13:33:41.584Z,12.02
2018-05-19T13:36:14.184Z,11.90
2018-05-19T13:38:46.705Z,13.57
2018-05-19T13:41:19.264Z,13.65
2018-05-19T13:43:51.796Z,12.95
2018-05-19T13:46:24.341Z,11.77
2018-05-19T13:48:56.857Z,12.57
2018-05-19T13:51:29.389Z,12.82
2018-05-19T13:54:01.917Z,12.40
2018-05-19T13:56:34.493Z,13.60
2018-05-19T13:59:07.250Z,13.15
2018-05-19T14:01:39.829Z,12.77
2018-05-19T14:04:12.362Z,13.98
2018-05-19T14:06:44.970Z,13.15
2018-05-19T14:09:17.501Z,13.82
2018-05-19T14:11:50.110Z,13.62
2018-05-19T14:14:22.640Z,13.95
2018-05-19T14:16:55.189Z,12.60
2018-05-19T14:22:07.120Z,12.90
2018-05-19T14:24:39.721Z,13.82
2018-05-19T14:27:13.767Z,13.15
2018-05-19T14:29:46.360Z,11.30
2018-05-19T14:32:18.940Z,12.88
2018-05-19T14:34:51.481Z,12.63
2018-05-19T14:37:24.035Z,13.07
2018-05-19T14:39:56.553Z,11.77
2018-05-19T14:42:29.132Z,11.93
2018-05-19T14:45:01.693Z,11.82
2018-05-19T14:47:34.278Z,11.18
2018-05-19T14:50:07.365Z,9.70
2018-05-19T14:52:39.924Z,11.25
2018-05-19T14:55:12.484Z,12.07
2018-05-19T14:57:45.041Z,11.85
2018-05-19T15:00:17.612Z,10.48
2018-05-19T15:02:50.160Z,8.85
2018-05-19T15:05:22.687Z,11.25
2018-05-19T15:07:55.267Z,11.00
2018-05-19T15:10:27.779Z,11.20
2018-05-19T15:13:00.313Z,10.80
2018-05-19T15:15:32.844Z,10.68
2018-05-19T15:18:06.486Z,9.70
2018-05-19T15:20:40.587Z,9.95
2018-05-19T15:23:13.133Z,10.70
2018-05-19T15:25:46.187Z,11.12
2018-05-19T15:28:18.719Z,10.93
2018-05-19T15:30:51.239Z,10.13
2018-05-19T15:33:23.773Z,11.50
2018-05-19T15:35:56.279Z,9.65
2018-05-19T15:38:28.813Z,11.02
2018-05-19T15:41:01.313Z,9.77
2018-05-19T15:43:33.837Z,9.77
2018-05-19T15:46:06.415Z,10.13
2018-05-19T15:48:39.003Z,9.65
2018-05-19T15:51:11.769Z,10.43
2018-05-19T15:53:44.317Z,9.40
2018-05-19T15:56:16.983Z,8.60
2018-05-19T15:58:49.458Z,8.68
2018-05-19T16:01:21.991Z,7.62
2018-05-19T16:03:54.504Z,8.35
2018-05-19T16:06:27.059Z,9.30
2018-05-19T16:08:59.567Z,9.63
2018-05-19T16:11:32.105Z,13.70
2018-05-19T16:14:04.618Z,10.38
2018-05-19T16:16:37.448Z,11.25
2018-05-19T16:19:09.992Z,9.90
2018-05-19T16:21:42.525Z,9.95
2018-05-19T16:24:15.220Z,10.05
2018-05-19T16:26:47.766Z,8.88
2018-05-19T16:29:20.291Z,10.55
2018-05-19T16:31:52.830Z,10.35
2018-05-19T16:34:25.346Z,10.18
2018-05-19T16:36:57.873Z,9.15
2018-05-19T16:39:30.427Z,9.70
2018-05-19T16:42:02.982Z,8.65
2018-05-19T16:44:35.588Z,9.95
2018-05-19T16:47:08.280Z,8.48
2018-05-19T16:49:40.854Z,9.00
2018-05-19T16:52:13.424Z,9.05
2018-05-19T16:54:45.968Z,8.18
2018-05-19T16:57:18.508Z,9.77
2018-05-19T16:59:51.263Z,9.25
2018-05-19T17:02:23.797Z,9.60
2018-05-19T17:04:56.352Z,9.35
2018-05-19T17:07:28.957Z,8.95
2018-05-19T17:10:01.491Z,9.52
2018-05-19T17:12:34.175Z,9.35
2018-05-19T17:15:07.133Z,7.85
2018-05-19T17:17:41.167Z,10.15
2018-05-19T17:20:15.106Z,9.10
2018-05-19T17:22:47.652Z,10.07
2018-05-19T17:25:20.163Z,9.25
2018-05-19T17:27:52.693Z,9.65
2018-05-19T17:30:25.206Z,9.48
2018-05-19T17:32:57.742Z,8.05
2018-05-19T17:35:30.273Z,10.73
2018-05-19T17:38:02.802Z,9.63
2018-05-19T17:40:36.793Z,9.30
2018-05-19T17:43:09.388Z,8.23
2018-05-19T17:45:41.923Z,10.07
2018-05-19T17:48:14.925Z,9.13
2018-05-19T17:50:47.636Z,9.43
2018-05-19T17:53:20.187Z,9.35
2018-05-19T17:55:52.695Z,8.80
2018-05-19T17:58:25.227Z,9.57
2018-05-19T18:00:57.738Z,9.38
2018-05-19T18:03:30.260Z,8.32
2018-05-19T18:06:02.779Z,8.57
2018-05-19T18:08:36.034Z,8.73
2018-05-19T18:11:08.628Z,9.30
2018-05-19T18:13:41.205Z,8.82
2018-05-19T18:16:13.724Z,8.18
2018-05-19T18:18:46.408Z,8.73
2018-05-19T18:21:18.873Z,8.80
2018-05-19T18:23:51.407Z,8.43
2018-05-19T18:26:23.922Z,9.38
2018-05-19T18:28:56.449Z,8.82
2018-05-19T18:31:28.967Z,8.48
2018-05-19T18:34:01.494Z,8.35
2018-05-19T18:36:34.018Z,8.05
2018-05-19T18:39:06.551Z,8.93
2018-05-19T18:41:39.202Z,9.63
2018-05-19T18:44:11.783Z,9.32
2018-05-19T18:46:44.700Z,9.05
2018-05-19T18:49:17.254Z,11.18
2018-05-19T18:51:49.797Z,10.23
2018-05-19T18:54:22.332Z,11.07
2018-05-19T18:56:54.840Z,10.60
2018-05-19T18:59:27.485Z,9.82
2018-05-19T19:02:00.005Z,13.93
2018-05-19T19:04:32.554Z,12.55
2018-05-19T19:07:05.189Z,12.43
2018-05-19T19:09:37.891Z,12.82
2018-05-19T19:12:10.508Z,11.90
2018-05-19T19:14:43.472Z,12.10
2018-05-19T19:17:16.066Z,10.95
2018-05-19T19:19:48.574Z,10.13
2018-05-19T19:22:21.098Z,9.98
2018-05-19T19:24:53.611Z,10.05
2018-05-19T19:27:26.146Z,9.93
2018-05-19T19:29:58.663Z,10.90
2018-05-19T19:32:31.285Z,10.50
2018-05-19T19:35:03.763Z,10.32
2018-05-19T19:37:36.457Z,10.13
2018-05-19T19:40:09.820Z,10.63
2018-05-19T19:42:42.422Z,9.30
2018-05-19T19:45:14.925Z,9.55
2018-05-19T19:47:47.492Z,9.95
2018-05-19T19:50:20.012Z,9.75
2018-05-19T19:52:52.546Z,11.52
2018-05-19T19:55:25.057Z,12.57
2018-05-19T19:57:57.596Z,12.82
2018-05-19T20:00:30.110Z,13.73
2018-05-19T20:03:02.747Z,11.00
2018-05-19T20:05:35.373Z,13.50
2018-05-19T20:08:07.924Z,10.48
2018-05-19T20:10:40.453Z,11.20
2018-05-19T20:13:12.996Z,9.88
2018-05-19T20:15:45.519Z,10.45
2018-05-19T20:18:18.067Z,9.25
2018-05-19T20:20:50.580Z,9.13
2018-05-19T20:23:23.124Z,9.70
2018-05-19T20:25:55.644Z,9.73
2018-05-19T20:28:28.177Z,10.13
2018-05-19T20:31:00.685Z,8.77
2018-05-19T20:33:33.230Z,9.95
2018-05-19T20:36:06.547Z,11.10
2018-05-19T20:38:39.113Z,10.35
2018-05-19T20:41:11.620Z,9.75
2018-05-19T20:43:44.188Z,10.55
2018-05-19T20:46:16.701Z,9.55
2018-05-19T20:48:49.234Z,10.10
2018-05-19T20:51:21.746Z,10.38
2018-05-19T20:53:54.285Z,10.25
2018-05-19T20:56:26.792Z,10.50
2018-05-19T20:58:59.333Z,10.52
2018-05-19T21:01:31.889Z,10.20
2018-05-19T21:04:04.459Z,10.32
2018-05-19T21:06:37.332Z,11.38
2018-05-19T21:09:09.929Z,11.77
2018-05-19T21:11:42.698Z,9.98
2018-05-19T21:14:15.238Z,10.57
2018-05-19T21:16:47.750Z,10.60
2018-05-19T21:19:20.274Z,10.60
2018-05-19T21:21:52.802Z,10.52
2018-05-19T21:24:25.346Z,10.15
2018-05-19T21:26:57.861Z,10.02
2018-05-19T21:29:30.393Z,11.20
2018-05-19T21:32:02.907Z,9.90
2018-05-19T21:34:36.194Z,10.23
2018-05-19T21:37:08.995Z,11.73
2018-05-19T21:39:41.808Z,10.27
2018-05-19T21:42:14.570Z,10.43
2018-05-19T21:44:47.390Z,10.50
2018-05-19T21:47:19.921Z,9.90
2018-05-19T21:49:52.554Z,10.80
2018-05-19T21:52:25.013Z,10.37
2018-05-19T21:54:57.544Z,11.13
2018-05-19T21:57:30.162Z,10.20
2018-05-19T22:00:02.633Z,10.67
2018-05-19T22:02:35.452Z,10.77
2018-05-19T22:05:08.045Z,10.73
2018-05-19T22:07:40.605Z,10.07
2018-05-19T22:10:13.177Z,10.90
2018-05-19T22:12:45.704Z,10.13
2018-05-19T22:15:18.258Z,10.73
2018-05-19T22:17:50.784Z,11.30
2018-05-19T22:20:23.321Z,10.90
2018-05-19T22:22:55.836Z,10.17
2018-05-19T22:25:28.373Z,10.13
2018-05-19T22:28:00.884Z,11.80
2018-05-19T22:30:33.425Z,11.13
2018-05-19T22:33:07.132Z,10.97
2018-05-19T22:35:39.690Z,11.20
2018-05-19T22:38:12.331Z,10.13
2018-05-19T22:40:44.914Z,10.60
2018-05-19T22:43:17.533Z,12.23
2018-05-19T22:45:50.105Z,12.47
2018-05-19T22:48:22.676Z,13.67
2018-05-19T22:50:55.234Z,11.83
2018-05-19T22:53:27.850Z,10.83
2018-05-19T22:56:00.413Z,12.87
2018-05-19T22:58:32.967Z,12.03
2018-05-19T23:01:06.025Z,10.60
2018-05-19T23:03:38.572Z,10.87
2018-05-19T23:06:11.101Z,13.00
2018-05-19T23:08:43.719Z,12.60
2018-05-19T23:11:16.252Z,12.50
2018-05-19T23:13:48.800Z,13.90
2018-05-19T23:16:21.323Z,12.80
2018-05-19T23:18:53.899Z,13.00
2018-05-19T23:21:26.418Z,11.97
2018-05-19T23:23:58.946Z,12.00
2018-05-19T23:26:31.462Z,11.97
2018-05-19T23:29:03.999Z,13.17
2018-05-19T23:31:36.841Z,12.00
2018-05-19T23:34:09.390Z,12.93
2018-05-19T23:36:41.933Z,14.83
2018-05-19T23:39:14.489Z,12.63
2018-05-19T23:41:47.014Z,12.30
2018-05-19T23:44:19.571Z,12.27
2018-05-19T23:46:52.086Z,11.33
2018-05-19T23:49:24.631Z,12.43
2018-05-19T23:51:57.205Z,11.40
2018-05-19T23:54:29.790Z,10.93
2018-05-19T23:57:02.318Z,11.50
2018-05-19T23:59:36.158Z,12.53
